Belle L' Adriatique — ONEN — position and weather

sailwx.info

Track history (hours):
 
Tides and Currents Weather Stations Pressure Air Temp Water Temp Dewpoint Dewpoint Depression Visibility Wind Speed Wind Dir Waves Ship Positions

Belle L' Adriatique

Last reported at 2018-May-06 19:23 UTC. Time now 2018-Jun-24 15:09 UTC.
Position N 37°53' E 015°49'.
Warning: this ship's position is 48 days out of date.

Length 111 m; draft 2.5 m.

Type: Passenger vessel. MMSI: 205481000.

Date/timePositionNaut miles runAvg speedWind from/ knotsBaromVisibWave heightAir tempDewpointWater temp
2018-May-06 19:23N 37°53' E 015°49'410.1
2018-May-06 18:57N 37°54' E 015°43'810.5
2018-May-06 18:10N 38°01' E 015°37'212.1
2018-May-06 18:00N 38°03' E 015°36'612.5
2018-May-06 17:30N 38°09' E 015°34'3 5.4
2018-May-06 16:59N 38°11' E 015°33'0 0.0
2018-May-06 12:18N 38°11' E 015°33'0 0.0
2018-May-06 11:42N 38°11' E 015°33'0 0.0
2018-May-06 11:30N 38°11' E 015°33'0 0.0
2018-May-06 11:00N 38°11' E 015°33'0 0.0
2018-May-06 10:18N 38°11' E 015°33'0 0.0
2018-May-06 09:54N 38°11' E 015°33'0 0.0
2018-May-06 09:30N 38°11' E 015°33'0 0.0
2018-May-06 09:00N 38°11' E 015°33'0 0.0
2018-May-06 08:30N 38°11' E 015°33'0 0.0
2018-May-06 05:42N 38°11' E 015°33'0 1.7
2018-May-06 05:27N 38°12' E 015°34'510.4
2018-May-06 05:00N 38°15' E 015°38'3 6.5
2018-May-06 04:29N 38°18' E 015°37'511.3
2018-May-06 04:00N 38°20' E 015°30'510.4
2018-May-06 03:30N 38°20' E 015°24'510.5
2018-May-06 03:00N 38°19' E 015°17'510.6
2018-May-06 02:30N 38°19' E 015°10'510.7
2018-May-06 02:00N 38°18' E 015°03'611.8
2018-May-06 01:30N 38°17' E 014°56'612.0
2018-May-06 00:59N 38°17' E 014°48'4811.3
2018-May-05 20:46N 38°11' E 013°48'311.5
2018-May-05 20:28N 38°10' E 013°44'511.5
2018-May-05 20:00N 38°09' E 013°37'611.6
2018-May-05 19:31N 38°09' E 013°30'611.0
2018-May-05 19:00N 38°07' E 013°23'1 2.3
2018-May-05 18:29N 38°08' E 013°22'0 0.0
2018-May-05 17:59N 38°08' E 013°22'0 0.0
2018-May-05 17:29N 38°08' E 013°22'0 0.0
2018-May-05 16:59N 38°08' E 013°22'0 0.0
2018-May-05 16:29N 38°08' E 013°22'0 0.0
2018-May-05 15:59N 38°08' E 013°22'0 0.0
2018-May-05 15:29N 38°08' E 013°22'0 0.0
2018-May-05 14:59N 38°08' E 013°22'0 0.0
2018-May-05 14:29N 38°08' E 013°22'0 0.0
2018-May-05 13:59N 38°08' E 013°22'0 0.0
2018-May-05 13:29N 38°08' E 013°22'0 0.0
2018-May-05 12:59N 38°08' E 013°22'0 0.0
2018-May-05 12:29N 38°08' E 013°22'0 0.0
2018-May-05 11:59N 38°08' E 013°22'0 0.0
2018-May-05 11:29N 38°08' E 013°22'0 0.0
2018-May-05 10:59N 38°08' E 013°22'1 1.3
2018-May-05 10:30N 38°08' E 013°22'1 1.9
2018-May-05 10:00N 38°08' E 013°24'4 8.2
2018-May-05 09:30N 38°12' E 013°24'612.1
2018-May-05 09:00N 38°18' E 013°20'611.8
2018-May-05 08:30N 38°23' E 013°17'611.7
2018-May-05 07:59N 38°28' E 013°13'611.8
2018-May-05 07:29N 38°33' E 013°10'  
2018-Apr-28 05:21N 42°38' E 008°56'0 0.0
2018-Apr-28 04:57N 42°38' E 008°56'27 6.8
2018-Apr-28 00:59N 43°01' E 009°17'4 7.5
2018-Apr-28 00:30N 43°04' E 009°20'4 7.4
2018-Apr-28 00:00N 43°06' E 009°24'3 6.7
2018-Apr-27 23:30N 43°07' E 009°29'4 7.5
2018-Apr-27 22:58N 43°05' E 009°34'4 7.2
2018-Apr-27 22:27N 43°03' E 009°38'  
Track history (hours):
 
Tides and Currents Weather Stations Pressure Air Temp Water Temp Dewpoint Dewpoint Depression Visibility Wind Speed Wind Dir Waves Ship Positions

Belle L' Adriatique

Last reported at 2018-May-06 19:23 UTC. Time now 2018-Jun-24 15:09 UTC.
Position N 37°53' E 015°49'.
Warning: this ship's position is 48 days out of date.

Length 111 m; draft 2.5 m.

Type: Passenger vessel. MMSI: 205481000.

Date/timePositionNaut miles runAvg speedWind from/ knotsBaromVisibWave heightAir tempDewpointWater temp
2018-May-06 19:23N 37°53' E 015°49'410.1
2018-May-06 18:57N 37°54' E 015°43'810.5
2018-May-06 18:10N 38°01' E 015°37'212.1
2018-May-06 18:00N 38°03' E 015°36'612.5
2018-May-06 17:30N 38°09' E 015°34'3 5.4
2018-May-06 16:59N 38°11' E 015°33'0 0.0
2018-May-06 12:18N 38°11' E 015°33'0 0.0
2018-May-06 11:42N 38°11' E 015°33'0 0.0
2018-May-06 11:30N 38°11' E 015°33'0 0.0
2018-May-06 11:00N 38°11' E 015°33'0 0.0
2018-May-06 10:18N 38°11' E 015°33'0 0.0
2018-May-06 09:54N 38°11' E 015°33'0 0.0
2018-May-06 09:30N 38°11' E 015°33'0 0.0
2018-May-06 09:00N 38°11' E 015°33'0 0.0
2018-May-06 08:30N 38°11' E 015°33'0 0.0
2018-May-06 05:42N 38°11' E 015°33'0 1.7
2018-May-06 05:27N 38°12' E 015°34'510.4
2018-May-06 05:00N 38°15' E 015°38'3 6.5
2018-May-06 04:29N 38°18' E 015°37'511.3
2018-May-06 04:00N 38°20' E 015°30'510.4
2018-May-06 03:30N 38°20' E 015°24'510.5
2018-May-06 03:00N 38°19' E 015°17'510.6
2018-May-06 02:30N 38°19' E 015°10'510.7
2018-May-06 02:00N 38°18' E 015°03'611.8
2018-May-06 01:30N 38°17' E 014°56'612.0
2018-May-06 00:59N 38°17' E 014°48'4811.3
2018-May-05 20:46N 38°11' E 013°48'311.5
2018-May-05 20:28N 38°10' E 013°44'511.5
2018-May-05 20:00N 38°09' E 013°37'611.6
2018-May-05 19:31N 38°09' E 013°30'611.0
2018-May-05 19:00N 38°07' E 013°23'1 2.3
2018-May-05 18:29N 38°08' E 013°22'0 0.0
2018-May-05 17:59N 38°08' E 013°22'0 0.0
2018-May-05 17:29N 38°08' E 013°22'0 0.0
2018-May-05 16:59N 38°08' E 013°22'0 0.0
2018-May-05 16:29N 38°08' E 013°22'0 0.0
2018-May-05 15:59N 38°08' E 013°22'0 0.0
2018-May-05 15:29N 38°08' E 013°22'0 0.0
2018-May-05 14:59N 38°08' E 013°22'0 0.0
2018-May-05 14:29N 38°08' E 013°22'0 0.0
2018-May-05 13:59N 38°08' E 013°22'0 0.0
2018-May-05 13:29N 38°08' E 013°22'0 0.0
2018-May-05 12:59N 38°08' E 013°22'0 0.0
2018-May-05 12:29N 38°08' E 013°22'0 0.0
2018-May-05 11:59N 38°08' E 013°22'0 0.0
2018-May-05 11:29N 38°08' E 013°22'0 0.0
2018-May-05 10:59N 38°08' E 013°22'1 1.3
2018-May-05 10:30N 38°08' E 013°22'1 1.9
2018-May-05 10:00N 38°08' E 013°24'4 8.2
2018-May-05 09:30N 38°12' E 013°24'612.1
2018-May-05 09:00N 38°18' E 013°20'611.8
2018-May-05 08:30N 38°23' E 013°17'611.7
2018-May-05 07:59N 38°28' E 013°13'611.8
2018-May-05 07:29N 38°33' E 013°10'  
2018-Apr-28 05:21N 42°38' E 008°56'0 0.0
2018-Apr-28 04:57N 42°38' E 008°56'27 6.8
2018-Apr-28 00:59N 43°01' E 009°17'4 7.5
2018-Apr-28 00:30N 43°04' E 009°20'4 7.4
2018-Apr-28 00:00N 43°06' E 009°24'3 6.7
2018-Apr-27 23:30N 43°07' E 009°29'4 7.5
2018-Apr-27 22:58N 43°05' E 009°34'4 7.2
2018-Apr-27 22:27N 43°03' E 009°38'  

Dump ship's entire track history